Time;durP1;ratioP1;P1;durP2;ratioP2;P2;SDS_P1;SDS_P2;PMS_P1;PMS_P2;Temp;Humidity;BMP_temperature;BMP_pressure;BME280_temperature;BME280_humidity;BME280_pressure;Samples;Min_cycle;Max_cycle;Signal;HPM_P1;HPM_P2
2021/07/21 00:00:11;;;;;;;;;19.00;16.25;;;;;27.83;40.31;101688.91;5029831;28;44754;-85
2021/07/21 00:02:37;;;;;;;;;16.75;15.75;;;;;27.80;39.78;101689.84;5030007;28;45370;-85
2021/07/21 00:05:06;;;;;;;;;17.00;15.50;;;;;27.75;40.08;101686.34;5021609;28;46507;-85
2021/07/21 00:07:32;;;;;;;;;19.50;17.50;;;;;27.75;40.18;101683.69;5021049;28;45735;-85
2021/07/21 00:09:58;;;;;;;;;17.50;17.50;;;;;27.73;40.32;101681.94;5020311;28;45319;-86
2021/07/21 00:15:08;;;;;;;;;19.75;16.50;;;;;27.65;40.24;101680.25;5016821;28;45729;-86
2021/07/21 00:17:35;;;;;;;;;20.50;16.00;;;;;27.59;40.48;101675.00;5019240;28;45256;-85
2021/07/21 00:20:07;;;;;;;;;15.50;15.00;;;;;27.58;40.53;101680.38;5024749;28;45170;-85
2021/07/21 00:22:36;;;;;;;;;20.00;16.50;;;;;27.54;40.65;101686.63;5029278;28;45352;-86
2021/07/21 00:25:03;;;;;;;;;20.00;14.25;;;;;27.47;40.70;101681.38;5034449;28;45189;-86
2021/07/21 00:27:29;;;;;;;;;13.75;13.75;;;;;27.43;40.88;101676.09;5024123;28;45414;-86
2021/07/21 00:29:55;;;;;;;;;15.25;14.25;;;;;27.38;40.86;101676.09;5021922;28;45383;-86
2021/07/21 00:32:20;;;;;;;;;15.25;13.50;;;;;27.39;41.16;101677.00;5021712;28;45307;-86
2021/07/21 00:34:46;;;;;;;;;14.75;14.00;;;;;27.38;40.91;101684.09;5025346;28;46722;-85
2021/07/21 00:37:11;;;;;;;;;16.25;15.75;;;;;27.38;40.72;101683.22;5025705;28;45970;-85
2021/07/21 00:39:37;;;;;;;;;16.50;15.75;;;;;27.36;40.59;101685.91;5024285;28;45406;-85
2021/07/21 00:42:03;;;;;;;;;17.25;15.50;;;;;27.32;41.34;101687.69;5026067;28;45244;-86
2021/07/21 00:44:29;;;;;;;;;14.50;14.00;;;;;27.30;41.28;101688.63;5021950;28;45472;-85
2021/07/21 00:46:54;;;;;;;;;12.25;12.25;;;;;27.26;41.34;101682.47;5025367;28;45255;-85
2021/07/21 00:49:24;;;;;;;;;14.50;14.00;;;;;27.23;41.05;101685.16;5025079;28;45288;-85
2021/07/21 00:51:53;;;;;;;;;15.50;15.00;;;;;27.17;41.34;101679.91;5038938;28;45485;-86
2021/07/21 00:54:23;;;;;;;;;18.25;14.00;;;;;27.17;40.93;101687.88;5027132;28;45319;-86
2021/07/21 00:56:51;;;;;;;;;14.75;12.50;;;;;27.14;41.49;101693.22;5026866;28;45485;-86
2021/07/21 00:59:17;;;;;;;;;16.75;15.50;;;;;27.11;41.44;101691.47;5024441;28;45653;-86
2021/07/21 01:01:43;;;;;;;;;14.00;12.50;;;;;27.07;41.68;101688.88;5020760;28;45308;-86
2021/07/21 01:04:12;;;;;;;;;16.25;13.25;;;;;27.04;41.32;101695.09;5020808;28;46302;-86
2021/07/21 01:06:38;;;;;;;;;16.25;15.50;;;;;27.04;41.54;101700.44;5020523;28;45764;-86
2021/07/21 01:09:10;;;;;;;;;17.50;17.00;;;;;26.99;41.21;101691.59;5021894;28;45335;-86
2021/07/21 01:11:49;;;;;;;;;20.75;16.50;;;;;26.99;41.61;101696.91;5022209;28;45538;-86
2021/07/21 01:14:27;;;;;;;;;17.50;13.25;;;;;27.00;41.52;101694.22;5020664;28;47916;-86
2021/07/21 01:16:59;;;;;;;;;16.75;14.50;;;;;27.01;41.57;101696.00;5021095;28;45794;-85
2021/07/21 01:19:49;;;;;;;;;18.00;16.25;;;;;26.99;41.51;101697.81;5023631;28;45323;-86
2021/07/21 01:22:33;;;;;;;;;16.50;15.25;;;;;26.99;41.28;101688.94;5023451;28;45153;-86
2021/07/21 01:25:21;;;;;;;;;16.00;15.00;;;;;26.97;41.91;101694.28;5040629;28;45588;-86
2021/07/21 01:27:52;;;;;;;;;16.50;13.75;;;;;26.96;41.19;101691.63;5023808;28;45324;-85
2021/07/21 01:30:26;;;;;;;;;19.50;16.25;;;;;26.95;41.55;101689.84;5022180;28;45506;-86
2021/07/21 01:33:00;;;;;;;;;16.75;16.50;;;;;26.86;41.45;101690.84;5019119;28;45916;-86
2021/07/21 01:35:35;;;;;;;;;16.75;16.25;;;;;26.82;41.39;101684.69;5020333;28;46222;-85
2021/07/21 01:38:05;;;;;;;;;18.25;16.00;;;;;26.83;41.54;101683.78;5020219;28;45300;-85
2021/07/21 01:40:36;;;;;;;;;19.00;16.50;;;;;26.85;41.88;101681.13;5020318;28;45355;-85
2021/07/21 01:43:07;;;;;;;;;16.75;13.75;;;;;26.84;41.97;101685.53;5020268;28;45443;-86
2021/07/21 01:45:34;;;;;;;;;18.25;15.25;;;;;26.86;41.62;101686.41;5020230;28;45299;-85
2021/07/21 01:48:01;;;;;;;;;18.25;17.50;;;;;26.83;41.46;101693.53;5026938;28;45330;-86
2021/07/21 01:50:30;;;;;;;;;19.50;15.75;;;;;26.81;42.06;101687.34;5026903;28;45279;-86
2021/07/21 01:52:58;;;;;;;;;19.75;17.25;;;;;26.79;41.29;101700.66;5028189;28;45319;-85
2021/07/21 01:55:25;;;;;;;;;19.50;16.75;;;;;26.75;41.48;101698.88;5022957;28;45405;-85
2021/07/21 01:57:52;;;;;;;;;17.75;16.00;;;;;26.67;41.47;101696.28;5019467;28;45380;-85
2021/07/21 02:00:18;;;;;;;;;19.25;14.00;;;;;26.67;41.51;101700.72;5020016;28;45431;-86
2021/07/21 02:02:48;;;;;;;;;15.50;14.25;;;;;26.67;42.25;101703.38;5019809;28;45360;-86
2021/07/21 02:05:16;;;;;;;;;20.50;17.50;;;;;26.66;41.77;101704.25;5019456;28;45767;-85
2021/07/21 02:07:45;;;;;;;;;15.50;14.00;;;;;26.61;41.36;101700.78;5018624;28;45635;-85
2021/07/21 02:10:13;;;;;;;;;19.25;16.00;;;;;26.56;42.24;101708.78;5023819;28;45253;-85
2021/07/21 02:13:01;;;;;;;;;17.75;16.75;;;;;26.55;42.07;101704.38;5031101;28;45367;-85
2021/07/21 02:15:30;;;;;;;;;18.25;14.25;;;;;26.50;41.89;101700.84;5030537;28;47820;-85
2021/07/21 02:18:05;;;;;;;;;18.25;14.25;;;;;26.44;41.88;101688.50;5033657;28;45041;-85
2021/07/21 02:20:44;;;;;;;;;21.50;16.75;;;;;26.46;42.56;101691.16;5035994;28;45337;-85
2021/07/21 02:23:14;;;;;;;;;17.25;15.25;;;;;26.51;41.93;101697.31;5033122;28;45302;-86
2021/07/21 02:25:43;;;;;;;;;18.00;16.25;;;;;26.49;42.07;101696.41;5028431;28;47668;-85
2021/07/21 02:28:13;;;;;;;;;21.75;15.00;;;;;26.45;41.99;101700.00;5027004;28;45752;-86
2021/07/21 02:30:51;;;;;;;;;23.25;20.00;;;;;26.41;42.07;101701.78;5031697;28;45414;-85
2021/07/21 02:33:44;;;;;;;;;21.00;16.50;;;;;26.34;42.17;101694.75;5028813;28;45245;-84
2021/07/21 02:36:13;;;;;;;;;17.25;17.25;;;;;26.31;42.84;101698.31;5025365;28;46905;-85
2021/07/21 02:38:40;;;;;;;;;17.50;16.25;;;;;26.26;42.61;101687.75;5027693;28;45731;-85
2021/07/21 02:44:34;;;;;;;;;;;;;;;;;;;;;
2021/07/21 02:47:11;;;;;;;;;19.25;16.00;;;;;26.21;42.63;101691.31;5030182;28;75771;-85
2021/07/21 02:49:40;;;;;;;;;22.00;18.00;;;;;26.21;42.26;101697.50;5031350;28;45415;-85
2021/07/21 02:52:22;;;;;;;;;14.75;14.75;;;;;26.26;42.44;101706.31;5029714;28;45425;-85
2021/07/21 02:55:13;;;;;;;;;;;;;;;;;;;;;
2021/07/21 02:58:04;;;;;;;;;18.75;16.75;;;;;26.23;42.42;101708.13;5029392;28;75491;-85
2021/07/21 03:00:32;;;;;;;;;20.75;15.75;;;;;26.17;42.96;101708.16;5027903;28;45325;-85
2021/07/21 03:03:01;;;;;;;;;20.25;16.50;;;;;26.15;43.03;101708.16;5028785;28;45348;-85
2021/07/21 03:05:36;;;;;;;;;18.00;15.50;;;;;26.15;43.13;101710.81;5028584;28;45220;-85
2021/07/21 03:08:02;;;;;;;;;19.00;17.50;;;;;26.17;43.04;101713.44;5006189;28;47284;-85
2021/07/21 03:10:29;;;;;;;;;19.75;17.25;;;;;26.13;43.12;101711.72;5018865;28;45466;-85
2021/07/21 03:13:19;;;;;;;;;18.00;16.25;;;;;26.09;42.78;101714.38;5019731;28;45407;-86
2021/07/21 03:15:47;;;;;;;;;19.00;17.75;;;;;26.04;42.89;101715.28;5026862;28;45331;-85
2021/07/21 03:18:17;;;;;;;;;20.25;18.50;;;;;26.00;43.59;101721.47;5024298;28;45656;-85
2021/07/21 03:20:44;;;;;;;;;18.00;18.00;;;;;25.96;43.39;101720.59;5019099;28;45428;-85
2021/07/21 03:23:12;;;;;;;;;20.75;17.25;;;;;25.97;43.20;101719.72;5018661;28;45510;-85
2021/07/21 03:25:39;;;;;;;;;16.25;16.00;;;;;25.96;43.68;101731.22;5018832;28;45409;-85
2021/07/21 03:28:05;;;;;;;;;10.75;8.75;;;;;25.94;44.09;101720.63;5019297;28;45566;-85
2021/07/21 03:30:32;;;;;;;;;19.00;15.00;;;;;25.91;43.64;101725.06;5019894;28;45751;-86
2021/07/21 03:32:59;;;;;;;;;20.00;18.25;;;;;25.87;43.92;101731.28;5020332;28;45421;-85
2021/07/21 03:35:30;;;;;;;;;20.50;19.25;;;;;25.86;44.01;101724.19;5019276;28;45481;-86
2021/07/21 03:37:57;;;;;;;;;18.25;17.00;;;;;25.86;43.72;101727.75;5019925;28;45397;-86
2021/07/21 03:40:26;;;;;;;;;21.25;17.25;;;;;25.87;43.83;101726.84;5023854;28;45766;-86
2021/07/21 03:42:54;;;;;;;;;17.00;16.50;;;;;25.83;43.48;101714.50;5009127;28;45320;-86
2021/07/21 03:45:22;;;;;;;;;20.00;19.00;;;;;25.82;43.89;101712.72;5026766;28;45303;-85
2021/07/21 03:47:48;;;;;;;;;16.50;15.50;;;;;25.82;43.89;101710.06;5019197;28;46057;-85
2021/07/21 03:50:18;;;;;;;;;19.00;16.25;;;;;25.78;44.43;101717.16;5018085;28;45295;-86
2021/07/21 03:52:46;;;;;;;;;17.50;16.00;;;;;25.78;44.04;101713.59;5017792;28;45355;-86
2021/07/21 03:55:14;;;;;;;;;20.25;18.75;;;;;25.77;43.83;101720.69;5018440;28;45886;-86
2021/07/21 03:57:40;;;;;;;;;19.25;16.50;;;;;25.74;44.62;101723.34;5018116;28;46264;-85
2021/07/21 04:00:10;;;;;;;;;20.75;17.50;;;;;25.68;44.40;101720.75;5017949;28;45327;-86
2021/07/21 04:02:36;;;;;;;;;23.75;20.75;;;;;25.64;44.46;101726.94;5016193;28;45300;-86
2021/07/21 04:05:04;;;;;;;;;21.00;18.25;;;;;25.56;44.00;101728.72;5018014;28;45465;-85
2021/07/21 04:07:32;;;;;;;;;17.25;15.75;;;;;25.48;44.67;101726.09;5018041;28;45415;-85
2021/07/21 04:09:58;;;;;;;;;18.75;17.50;;;;;25.47;44.62;101725.22;5021881;28;45634;-85
2021/07/21 04:12:25;;;;;;;;;20.75;18.50;;;;;25.44;44.51;101726.97;5023886;28;45483;-85
2021/07/21 04:14:52;;;;;;;;;20.75;18.75;;;;;25.43;44.65;101730.53;5025928;28;45410;-85
2021/07/21 04:17:19;;;;;;;;;22.75;19.50;;;;;25.44;45.02;101733.19;5020363;28;46538;-86
2021/07/21 04:19:47;;;;;;;;;20.50;18.00;;;;;25.42;44.81;101728.78;5017900;28;45364;-85
2021/07/21 04:22:13;;;;;;;;;18.50;16.75;;;;;25.42;44.43;101734.94;5017627;28;45300;-85
2021/07/21 04:24:42;;;;;;;;;21.00;21.00;;;;;25.40;45.04;101736.72;5017753;28;45465;-86
2021/07/21 04:27:10;;;;;;;;;22.50;18.50;;;;;25.40;45.43;101738.47;5017570;28;45510;-85
2021/07/21 04:29:36;;;;;;;;;19.25;16.25;;;;;25.39;44.98;101740.22;5016895;28;45651;-85
2021/07/21 04:32:03;;;;;;;;;20.50;18.75;;;;;25.39;44.71;101744.66;5016460;28;45308;-86
2021/07/21 04:34:29;;;;;;;;;20.75;18.75;;;;;25.38;44.81;101745.53;5019354;28;45447;-86
2021/07/21 04:36:55;;;;;;;;;28.50;23.25;;;;;25.37;45.36;101746.41;5021173;28;45371;-86
2021/07/21 04:39:22;;;;;;;;;19.50;18.00;;;;;25.31;45.73;101752.59;5023537;28;45790;-88
2021/07/21 04:41:51;;;;;;;;;22.75;17.25;;;;;25.33;45.80;101742.88;5039106;28;45351;-86
2021/07/21 04:44:17;;;;;;;;;20.50;18.75;;;;;25.35;45.86;101754.38;5019403;28;45261;-87
2021/07/21 04:46:45;;;;;;;;;22.00;19.25;;;;;25.30;45.76;101753.50;5017159;28;45422;-87
2021/07/21 04:49:13;;;;;;;;;19.75;15.50;;;;;25.27;45.98;101754.38;5014599;28;45438;-87
2021/07/21 04:51:39;;;;;;;;;22.75;18.25;;;;;25.27;45.69;101758.81;5017106;28;45332;-87
2021/07/21 04:54:06;;;;;;;;;21.00;16.00;;;;;25.25;45.72;101756.16;5015681;28;45242;-87
2021/07/21 04:56:32;;;;;;;;;22.25;19.00;;;;;25.26;45.30;101757.91;5015588;28;46926;-87
2021/07/21 04:58:58;;;;;;;;;25.75;21.00;;;;;25.24;45.96;101754.38;5010171;28;45495;-87
2021/07/21 05:01:24;;;;;;;;;21.25;20.50;;;;;25.23;45.55;101763.22;5004317;28;45327;-87
2021/07/21 05:03:53;;;;;;;;;21.50;19.75;;;;;25.22;46.05;101765.88;5020583;28;45684;-87
2021/07/21 05:06:20;;;;;;;;;21.75;19.75;;;;;25.26;45.90;101765.88;5007790;28;46825;-87
2021/07/21 05:08:45;;;;;;;;;22.00;19.25;;;;;25.24;45.75;101764.97;5016865;28;45304;-87
2021/07/21 05:11:11;;;;;;;;;21.75;17.50;;;;;25.27;45.82;101759.69;5012147;28;45238;-87
2021/07/21 05:13:40;;;;;;;;;20.50;19.50;;;;;25.28;45.40;101771.16;5009218;28;45265;-87
2021/07/21 05:16:07;;;;;;;;;26.75;22.75;;;;;25.28;46.05;101764.09;5006947;28;46216;-87
2021/07/21 05:18:33;;;;;;;;;20.50;19.75;;;;;25.34;45.45;101780.00;5007951;28;45790;-87
2021/07/21 05:20:59;;;;;;;;;25.00;20.25;;;;;25.32;45.54;101771.16;5008259;28;45280;-88
2021/07/21 05:23:25;;;;;;;;;22.25;22.25;;;;;25.32;45.86;101773.81;5007322;28;45493;-87
2021/07/21 05:25:50;;;;;;;;;23.25;20.50;;;;;25.33;45.31;101786.19;5006718;28;45414;-87
2021/07/21 05:28:16;;;;;;;;;27.25;20.75;;;;;25.33;45.68;101787.97;5009409;28;45218;-87
2021/07/21 05:30:41;;;;;;;;;21.00;19.50;;;;;25.32;46.06;101789.72;5003011;28;45364;-86
2021/07/21 05:33:07;;;;;;;;;24.00;21.75;;;;;25.32;46.09;101787.06;5006002;28;45237;-87
2021/07/21 05:35:32;;;;;;;;;27.00;22.75;;;;;25.30;45.74;101793.25;5004335;28;46664;-87
2021/07/21 05:37:58;;;;;;;;;31.75;24.25;;;;;25.32;46.13;101799.44;5013673;28;45262;-88
2021/07/21 05:40:24;;;;;;;;;24.25;22.25;;;;;25.32;45.86;101800.31;5019893;28;45352;-87
2021/07/21 05:42:49;;;;;;;;;27.75;24.75;;;;;25.35;45.94;101794.16;5020984;28;45609;-87
2021/07/21 05:45:15;;;;;;;;;21.25;21.25;;;;;25.32;45.50;101802.97;5013046;28;46666;-87
2021/07/21 05:47:42;;;;;;;;;22.25;20.25;;;;;25.29;46.15;101804.72;5006509;28;45359;-86
2021/07/21 05:50:08;;;;;;;;;23.25;22.25;;;;;25.27;46.12;101803.88;5005639;28;45569;-88
2021/07/21 05:52:34;;;;;;;;;23.25;22.25;;;;;25.27;45.74;101804.75;5003053;28;45342;-86
2021/07/21 05:55:00;;;;;;;;;21.00;19.25;;;;;25.26;46.03;101810.94;5011484;28;45309;-87
2021/07/21 05:57:26;;;;;;;;;19.75;19.00;;;;;25.26;45.92;101810.94;5001446;28;45531;-85
2021/07/21 05:59:52;;;;;;;;;22.25;21.50;;;;;25.27;45.64;101812.69;5002557;28;45248;-88
2021/07/21 06:02:19;;;;;;;;;24.50;20.50;;;;;25.29;46.08;101810.03;5004311;28;45334;-83
2021/07/21 06:04:45;;;;;;;;;27.25;22.25;;;;;25.29;46.28;101816.25;4999363;28;45459;-83
2021/07/21 06:07:10;;;;;;;;;22.75;19.75;;;;;25.34;46.31;101819.75;5001124;28;45255;-83
2021/07/21 06:09:36;;;;;;;;;25.75;22.00;;;;;25.37;45.79;101818.00;4999674;28;45370;-81
2021/07/21 06:12:02;;;;;;;;;27.00;21.75;;;;;25.39;46.31;101817.09;5000550;28;45388;-82
2021/07/21 06:14:28;;;;;;;;;28.00;25.25;;;;;25.40;45.58;101821.56;5002860;28;47969;-91
2021/07/21 06:16:54;;;;;;;;;27.00;23.50;;;;;25.38;45.62;101825.06;5007314;28;45233;-80
2021/07/21 06:19:20;;;;;;;;;23.25;20.25;;;;;25.41;45.62;101831.28;5019369;28;45263;-83
2021/07/21 06:21:45;;;;;;;;;25.00;21.00;;;;;25.42;45.88;101834.81;5021281;28;45251;-82
2021/07/21 06:24:11;;;;;;;;;24.75;24.00;;;;;25.43;46.02;101828.63;5018008;28;45923;-82
2021/07/21 06:26:37;;;;;;;;;31.00;24.25;;;;;25.44;45.39;101839.22;5019307;28;45378;-79
2021/07/21 06:29:03;;;;;;;;;25.75;22.00;;;;;25.50;46.10;101838.34;5019810;28;45518;-80
2021/07/21 06:31:29;;;;;;;;;25.25;21.00;;;;;25.54;45.16;101847.19;5013514;28;45546;-80
2021/07/21 06:33:55;;;;;;;;;29.00;25.25;;;;;25.57;45.77;101841.88;5009942;28;46254;-85
2021/07/21 06:36:21;;;;;;;;;24.75;22.00;;;;;25.60;45.43;101844.50;5024624;28;45885;-81
2021/07/21 06:38:46;;;;;;;;;27.50;24.25;;;;;25.58;45.50;101844.50;5019947;28;45497;-80
2021/07/21 06:41:13;;;;;;;;;24.75;21.50;;;;;25.51;45.19;101848.06;5001311;28;45383;-81
2021/07/21 06:43:40;;;;;;;;;29.50;24.50;;;;;25.51;45.91;101856.03;4998889;28;46145;-79
2021/07/21 06:46:06;;;;;;;;;28.50;26.00;;;;;25.51;46.02;101858.69;4996908;28;45276;-81
2021/07/21 06:48:32;;;;;;;;;24.00;23.00;;;;;25.50;45.17;101854.25;4998028;28;45422;-80
2021/07/21 06:50:58;;;;;;;;;20.00;19.75;;;;;25.55;45.40;101849.81;5018474;28;45224;-82
2021/07/21 06:53:24;;;;;;;;;26.25;24.25;;;;;25.59;45.86;101859.53;5019805;28;46106;-78
2021/07/21 06:55:50;;;;;;;;;23.50;20.75;;;;;25.61;45.08;101864.84;5020274;28;45323;-82
2021/07/21 06:58:16;;;;;;;;;22.75;22.75;;;;;25.63;45.33;101866.63;5019251;28;45354;-82
2021/07/21 07:00:42;;;;;;;;;29.00;24.50;;;;;25.67;45.65;101859.53;5020912;28;45288;-82
2021/07/21 07:03:09;;;;;;;;;29.75;24.75;;;;;25.69;45.82;101868.38;5022940;28;45916;-85
2021/07/21 07:05:34;;;;;;;;;28.25;24.25;;;;;25.68;45.32;101865.72;5028542;28;45735;-85
2021/07/21 07:08:00;;;;;;;;;27.50;25.25;;;;;25.71;45.37;101863.06;5025023;28;44764;-83
2021/07/21 07:10:27;;;;;;;;;27.75;23.75;;;;;25.73;45.03;101863.97;5019076;28;45173;-84
2021/07/21 07:12:54;;;;;;;;;23.00;21.25;;;;;25.73;45.21;101864.81;5021926;28;45343;-84
2021/07/21 07:15:20;;;;;;;;;29.50;25.25;;;;;25.75;44.72;101868.38;5018303;28;45882;-83
2021/07/21 07:17:46;;;;;;;;;24.75;22.75;;;;;25.80;45.12;101865.69;5032358;28;45845;-77
2021/07/21 07:20:12;;;;;;;;;27.25;24.00;;;;;25.84;44.76;101861.25;5015725;28;45311;-77
2021/07/21 07:22:38;;;;;;;;;27.25;20.50;;;;;25.83;44.64;101863.06;5016129;28;45492;-79
2021/07/21 07:25:06;;;;;;;;;29.50;26.50;;;;;25.80;44.65;101863.94;5014948;28;45415;-79
2021/07/21 07:27:32;;;;;;;;;29.00;27.00;;;;;25.81;44.50;101872.78;5018526;28;45323;-78
2021/07/21 07:29:58;;;;;;;;;31.75;23.50;;;;;25.82;44.88;101866.59;5020367;28;45341;-79
2021/07/21 07:32:25;;;;;;;;;27.75;25.00;;;;;25.86;45.06;101870.13;5022719;28;45670;-78
2021/07/21 07:34:51;;;;;;;;;27.50;23.25;;;;;25.86;44.55;101875.41;5014673;28;45473;-78
2021/07/21 07:37:16;;;;;;;;;26.75;23.25;;;;;25.89;44.47;101865.69;5020526;28;45311;-79
2021/07/21 07:39:42;;;;;;;;;28.00;25.75;;;;;25.90;44.17;101867.44;5014847;28;45457;-81
2021/07/21 07:42:08;;;;;;;;;27.50;21.75;;;;;25.94;44.92;101868.31;5000159;28;46076;-81
2021/07/21 07:44:34;;;;;;;;;26.75;23.50;;;;;25.96;44.88;101870.09;4998256;28;45437;-81
2021/07/21 07:46:59;;;;;;;;;30.75;23.75;;;;;25.99;44.61;101865.66;5004790;28;45559;-81
2021/07/21 07:49:25;;;;;;;;;28.00;24.25;;;;;26.03;44.02;101867.41;5005490;28;45506;-78
2021/07/21 07:51:51;;;;;;;;;28.75;24.25;;;;;26.04;44.42;101871.84;5005149;28;46487;-80
2021/07/21 07:54:18;;;;;;;;;30.75;26.50;;;;;25.99;43.90;101863.91;5007118;28;45797;-81
2021/07/21 07:56:45;;;;;;;;;24.75;22.50;;;;;26.00;43.96;101859.47;5007490;28;45512;-80
2021/07/21 07:59:11;;;;;;;;;27.75;22.50;;;;;26.03;44.28;101865.63;5015458;28;45438;-79
2021/07/21 08:01:36;;;;;;;;;26.50;24.00;;;;;26.08;44.08;101863.88;5018341;28;45809;-81
2021/07/21 08:04:02;;;;;;;;;30.00;26.00;;;;;26.11;44.21;101857.69;5016190;28;45439;-82
2021/07/21 08:06:28;;;;;;;;;27.50;25.75;;;;;26.14;43.78;101852.38;4998753;28;45454;-79
2021/07/21 08:08:53;;;;;;;;;22.50;22.00;;;;;26.18;43.32;101861.22;4997080;28;45399;-80
2021/07/21 08:11:19;;;;;;;;;26.50;19.25;;;;;26.18;42.85;101856.81;4996578;28;45956;-79
2021/07/21 08:13:45;;;;;;;;;21.75;21.00;;;;;26.20;43.07;101860.31;5000322;28;45795;-88
2021/07/21 08:16:11;;;;;;;;;28.50;23.25;;;;;26.22;43.18;101861.19;4999152;28;45181;-82
2021/07/21 08:18:38;;;;;;;;;30.25;24.25;;;;;26.24;42.74;101858.56;5004308;28;45570;-80
2021/07/21 08:21:04;;;;;;;;;30.25;23.25;;;;;26.29;43.08;101861.19;5003143;28;46955;-80
2021/07/21 08:23:34;;;;;;;;;27.25;22.25;;;;;26.34;42.97;101862.94;5003950;28;45458;-82
2021/07/21 08:25:59;;;;;;;;;22.25;21.75;;;;;26.39;42.91;101862.91;5002224;28;45459;-80
2021/07/21 08:28:25;;;;;;;;;31.25;23.00;;;;;26.42;42.85;101862.88;5001074;28;45508;-78
2021/07/21 08:30:51;;;;;;;;;30.25;26.00;;;;;26.45;43.45;101867.31;5011134;28;45498;-79
2021/07/21 08:33:18;;;;;;;;;30.75;25.00;;;;;26.47;42.65;101863.75;4996866;28;45749;-79
2021/07/21 08:35:44;;;;;;;;;23.75;20.75;;;;;26.47;42.75;101863.75;4995848;28;45464;-79
2021/07/21 08:38:11;;;;;;;;;26.25;22.50;;;;;26.44;42.52;101863.75;4997203;28;45494;-80
2021/07/21 08:40:39;;;;;;;;;24.50;24.00;;;;;26.46;42.39;101861.13;4998709;28;45983;-79
2021/07/21 08:43:07;;;;;;;;;30.50;23.25;;;;;26.50;42.25;101869.06;4993897;28;46360;-80
2021/07/21 08:45:32;;;;;;;;;27.00;25.25;;;;;26.54;43.10;101864.59;4999886;28;45407;-80
2021/07/21 08:47:58;;;;;;;;;14.50;10.75;;;;;26.59;42.27;101860.13;5013513;28;45268;-80
2021/07/21 08:50:24;;;;;;;;;24.00;23.00;;;;;26.63;43.00;101859.25;5012023;28;45476;-78
2021/07/21 08:52:53;;;;;;;;;21.50;20.75;;;;;26.66;42.06;101859.22;5016029;28;45354;-80
2021/07/21 08:55:22;;;;;;;;;25.50;21.75;;;;;26.66;41.79;101850.34;5013485;28;45428;-85
2021/07/21 08:57:48;;;;;;;;;25.50;21.75;;;;;26.69;41.46;101860.97;5016315;28;45411;-86
2021/07/21 09:00:16;;;;;;;;;22.00;20.25;;;;;26.69;41.48;101847.69;5015335;28;46414;-78
2021/07/21 09:02:44;;;;;;;;;20.75;17.75;;;;;26.69;41.38;101853.88;5013503;28;45832;-79
2021/07/21 09:05:12;;;;;;;;;24.00;18.75;;;;;26.75;42.36;101860.94;5000932;28;45578;-80
2021/07/21 09:07:39;;;;;;;;;20.50;16.00;;;;;26.81;41.62;101852.97;5015309;28;45446;-94
2021/07/21 09:10:31;;;;;;;;;18.50;17.00;;;;;26.86;41.95;101856.47;5014779;28;46057;-84
2021/07/21 09:13:00;;;;;;;;;21.00;20.25;;;;;26.87;41.61;101860.88;4998284;28;45843;-81
2021/07/21 09:15:26;;;;;;;;;20.50;18.75;;;;;26.92;42.22;101862.66;4995266;28;45377;-85
2021/07/21 09:18:02;;;;;;;;;21.25;18.75;;;;;26.96;42.26;101856.41;4997893;28;45383;-88
2021/07/21 09:20:28;;;;;;;;;25.00;21.75;;;;;26.99;43.34;101851.06;5005610;28;45486;-90
2021/07/21 09:22:56;;;;;;;;;22.00;20.25;;;;;27.03;42.52;101864.31;5022802;28;45758;-86
2021/07/21 09:25:25;;;;;;;;;19.75;17.50;;;;;27.06;42.31;101860.75;5012768;28;45414;-83
2021/07/21 09:27:56;;;;;;;;;20.75;17.25;;;;;27.09;42.23;101859.88;5003293;28;45791;-85
2021/07/21 09:30:44;;;;;;;;;22.25;19.75;;;;;27.11;42.18;101855.41;5001873;28;45356;-83
2021/07/21 09:33:15;;;;;;;;;20.25;18.50;;;;;27.12;41.99;101858.06;5010909;28;45835;-84
2021/07/21 09:35:44;;;;;;;;;19.50;16.00;;;;;27.15;40.94;101863.38;5016941;28;45271;-84
2021/07/21 09:38:11;;;;;;;;;21.50;18.00;;;;;27.17;41.60;101856.22;5014886;28;45454;-81
2021/07/21 09:40:41;;;;;;;;;16.50;16.50;;;;;27.18;41.61;101857.13;5002913;28;46271;-81
2021/07/21 09:43:16;;;;;;;;;20.25;17.00;;;;;27.22;41.36;101856.19;5009768;28;45712;-82
2021/07/21 09:45:45;;;;;;;;;20.50;19.00;;;;;27.21;40.78;101859.78;5009805;28;45401;-83
2021/07/21 09:48:12;;;;;;;;;20.50;19.25;;;;;27.19;40.50;101857.09;4999063;28;45439;-84
2021/07/21 09:50:43;;;;;;;;;18.25;17.75;;;;;27.23;41.00;101851.78;5019658;28;46013;-84
2021/07/21 09:53:12;;;;;;;;;19.25;18.75;;;;;27.25;40.66;101850.00;5008521;28;45678;-84
2021/07/21 09:55:41;;;;;;;;;21.50;17.25;;;;;27.29;40.27;101854.38;5019924;28;45289;-84
2021/07/21 09:58:09;;;;;;;;;19.50;16.00;;;;;27.27;40.51;101848.19;5007915;28;45617;-84
2021/07/21 10:00:39;;;;;;;;;18.25;17.25;;;;;27.32;40.74;101851.69;5001058;28;46070;-85
2021/07/21 10:03:13;;;;;;;;;17.25;17.25;;;;;27.31;40.22;101855.25;5020210;28;45268;-89
2021/07/21 10:05:57;;;;;;;;;16.25;15.25;;;;;27.32;40.34;101844.59;5016063;28;45507;-79
2021/07/21 10:08:34;;;;;;;;;20.00;18.00;;;;;27.35;40.01;101846.34;5006108;28;45360;-80
2021/07/21 10:11:27;;;;;;;;;19.50;17.50;;;;;27.38;40.36;101846.31;5016892;28;47696;-79
2021/07/21 10:14:02;;;;;;;;;28.00;24.00;;;;;27.41;40.03;101840.09;5018490;28;45347;-79
2021/07/21 10:16:48;;;;;;;;;20.75;19.25;;;;;27.46;40.35;101844.53;5018759;28;45446;-80
2021/07/21 10:19:24;;;;;;;;;18.25;17.00;;;;;27.49;40.24;101846.25;5017685;28;45316;-79
2021/07/21 10:22:00;;;;;;;;;23.50;15.00;;;;;27.52;40.12;101845.34;5015744;28;46223;-80
2021/07/21 10:24:34;;;;;;;;;17.75;17.75;;;;;27.52;39.97;101840.91;5003480;28;45412;-79
2021/07/21 10:27:02;;;;;;;;;16.75;16.50;;;;;27.53;40.35;101841.78;5007458;28;45482;-80
2021/07/21 10:29:28;;;;;;;;;23.00;20.00;;;;;27.53;40.12;101842.69;5018440;28;45460;-80
2021/07/21 10:31:54;;;;;;;;;20.25;19.25;;;;;27.54;39.78;101840.91;5017796;28;45521;-80
2021/07/21 10:34:21;;;;;;;;;18.50;17.00;;;;;27.58;40.69;101840.84;5018267;28;45474;-81
2021/07/21 10:36:50;;;;;;;;;19.50;16.00;;;;;27.64;40.06;101842.56;5017805;28;45392;-81
2021/07/21 10:39:18;;;;;;;;;15.25;15.25;;;;;27.67;40.02;101845.19;5017527;28;45231;-79
2021/07/21 10:41:46;;;;;;;;;19.50;15.75;;;;;27.72;40.27;101847.81;4998775;28;45605;-79
2021/07/21 10:44:15;;;;;;;;;19.00;17.00;;;;;27.75;40.08;101846.00;4996600;28;45820;-80
2021/07/21 10:46:43;;;;;;;;;16.25;14.75;;;;;27.78;39.89;101842.41;4998265;28;45321;-79
2021/07/21 11:00:20;;;;;;;;;18.75;17.50;;;;;27.92;40.17;101844.91;4998879;28;45178;-79
2021/07/21 11:02:47;;;;;;;;;19.75;15.00;;;;;27.94;40.22;101849.34;5018769;28;45342;-78
2021/07/21 11:05:33;;;;;;;;;18.75;16.00;;;;;27.98;40.01;101847.53;5019613;28;45740;-78
2021/07/21 11:08:01;;;;;;;;;14.00;12.75;;;;;27.99;40.14;101832.41;5017155;28;45371;-80
2021/07/21 11:10:30;;;;;;;;;21.75;16.75;;;;;28.01;40.05;101834.19;5001195;28;45324;-79
2021/07/21 11:12:57;;;;;;;;;21.50;18.25;;;;;28.02;40.02;101827.97;5006813;28;45435;-79
2021/07/21 11:15:45;;;;;;;;;17.75;16.25;;;;;28.02;40.31;101825.31;4997600;28;45351;-79
2021/07/21 11:18:26;;;;;;;;;19.00;15.75;;;;;28.05;39.93;101830.56;5004576;28;45541;-79
2021/07/21 11:21:13;;;;;;;;;18.50;16.25;;;;;28.10;40.07;101827.88;4997832;28;45284;-79
2021/07/21 11:23:53;;;;;;;;;16.25;15.25;;;;;28.14;40.07;101826.06;4997716;28;45577;-80
2021/07/21 11:26:34;;;;;;;;;16.75;15.50;;;;;28.17;40.29;101837.56;5009201;28;45366;-79
2021/07/21 11:29:33;;;;;;;;;17.00;17.00;;;;;28.21;39.99;101839.28;5017143;28;45493;-79
2021/07/21 11:32:01;;;;;;;;;16.75;15.75;;;;;28.24;40.25;101823.28;5016987;28;45208;-79
2021/07/21 11:34:37;;;;;;;;;19.25;18.00;;;;;28.29;40.05;101817.88;5016501;28;46097;-78
2021/07/21 11:37:07;;;;;;;;;20.50;17.75;;;;;28.32;39.95;101809.84;5016015;28;46035;-78